sensor_id;sensor_type;location;lat;lon;timestamp;P1;durP1;ratioP1;P2;durP2;ratioP2
11090;SDS011;5599;52.210;21.046;2023-06-22T00:01:06;23.75;;;21.52;;
11090;SDS011;5599;52.210;21.046;2023-06-22T00:03:35;21.85;;;20.05;;
11090;SDS011;5599;52.210;21.046;2023-06-22T00:06:06;21.98;;;19.98;;
11090;SDS011;5599;52.210;21.046;2023-06-22T00:08:35;21.45;;;19.67;;
11090;SDS011;5599;52.210;21.046;2023-06-22T00:11:04;22.35;;;20.60;;
11090;SDS011;5599;52.210;21.046;2023-06-22T00:13:33;22.90;;;20.67;;
11090;SDS011;5599;52.210;21.046;2023-06-22T00:16:03;22.20;;;20.25;;
11090;SDS011;5599;52.210;21.046;2023-06-22T00:18:32;22.17;;;20.48;;
11090;SDS011;5599;52.210;21.046;2023-06-22T00:21:02;22.45;;;20.63;;
11090;SDS011;5599;52.210;21.046;2023-06-22T00:23:34;23.10;;;21.25;;
11090;SDS011;5599;52.210;21.046;2023-06-22T00:26:04;23.48;;;21.65;;
11090;SDS011;5599;52.210;21.046;2023-06-22T00:28:33;36.00;;;32.85;;
11090;SDS011;5599;52.210;21.046;2023-06-22T00:31:02;24.80;;;22.83;;
11090;SDS011;5599;52.210;21.046;2023-06-22T00:33:32;23.90;;;21.90;;
11090;SDS011;5599;52.210;21.046;2023-06-22T00:36:04;24.02;;;22.10;;
11090;SDS011;5599;52.210;21.046;2023-06-22T00:38:38;23.67;;;21.70;;
11090;SDS011;5599;52.210;21.046;2023-06-22T00:41:08;23.70;;;21.55;;
11090;SDS011;5599;52.210;21.046;2023-06-22T00:43:37;23.33;;;21.40;;
11090;SDS011;5599;52.210;21.046;2023-06-22T00:46:07;23.30;;;21.45;;
11090;SDS011;5599;52.210;21.046;2023-06-22T00:48:37;24.17;;;21.98;;
11090;SDS011;5599;52.210;21.046;2023-06-22T00:51:08;23.98;;;21.77;;
11090;SDS011;5599;52.210;21.046;2023-06-22T00:53:40;23.85;;;21.73;;
11090;SDS011;5599;52.210;21.046;2023-06-22T00:56:10;22.25;;;20.52;;
11090;SDS011;5599;52.210;21.046;2023-06-22T00:58:40;21.83;;;20.02;;
11090;SDS011;5599;52.210;21.046;2023-06-22T01:01:09;24.20;;;22.30;;
11090;SDS011;5599;52.210;21.046;2023-06-22T01:03:38;22.33;;;20.55;;
11090;SDS011;5599;52.210;21.046;2023-06-22T01:06:08;23.42;;;21.42;;
11090;SDS011;5599;52.210;21.046;2023-06-22T01:08:46;23.65;;;21.17;;
11090;SDS011;5599;52.210;21.046;2023-06-22T01:11:22;22.65;;;20.65;;
11090;SDS011;5599;52.210;21.046;2023-06-22T01:13:58;21.58;;;19.80;;
11090;SDS011;5599;52.210;21.046;2023-06-22T01:16:31;22.98;;;21.17;;
11090;SDS011;5599;52.210;21.046;2023-06-22T01:19:09;21.50;;;19.75;;
11090;SDS011;5599;52.210;21.046;2023-06-22T01:21:55;22.83;;;21.10;;
11090;SDS011;5599;52.210;21.046;2023-06-22T01:24:30;22.95;;;20.95;;
11090;SDS011;5599;52.210;21.046;2023-06-22T01:27:09;24.20;;;22.20;;
11090;SDS011;5599;52.210;21.046;2023-06-22T01:29:58;23.45;;;21.65;;
11090;SDS011;5599;52.210;21.046;2023-06-22T01:32:28;23.33;;;21.52;;
11090;SDS011;5599;52.210;21.046;2023-06-22T01:35:01;23.60;;;21.70;;
11090;SDS011;5599;52.210;21.046;2023-06-22T01:37:34;24.10;;;22.10;;
11090;SDS011;5599;52.210;21.046;2023-06-22T01:40:05;24.17;;;22.17;;
11090;SDS011;5599;52.210;21.046;2023-06-22T01:42:36;25.08;;;22.83;;
11090;SDS011;5599;52.210;21.046;2023-06-22T01:45:08;25.27;;;23.20;;
11090;SDS011;5599;52.210;21.046;2023-06-22T01:47:39;24.33;;;22.13;;
11090;SDS011;5599;52.210;21.046;2023-06-22T01:50:09;23.15;;;21.25;;
11090;SDS011;5599;52.210;21.046;2023-06-22T01:52:39;23.45;;;21.45;;
11090;SDS011;5599;52.210;21.046;2023-06-22T01:55:08;24.67;;;22.67;;
11090;SDS011;5599;52.210;21.046;2023-06-22T01:57:39;24.63;;;22.65;;
11090;SDS011;5599;52.210;21.046;2023-06-22T02:00:11;23.73;;;21.83;;
11090;SDS011;5599;52.210;21.046;2023-06-22T02:02:45;24.80;;;22.70;;
11090;SDS011;5599;52.210;21.046;2023-06-22T02:05:19;24.90;;;22.45;;
11090;SDS011;5599;52.210;21.046;2023-06-22T02:07:53;23.80;;;21.83;;
11090;SDS011;5599;52.210;21.046;2023-06-22T02:10:30;25.67;;;23.73;;
11090;SDS011;5599;52.210;21.046;2023-06-22T02:13:01;26.00;;;23.88;;
11090;SDS011;5599;52.210;21.046;2023-06-22T02:15:34;26.33;;;24.13;;
11090;SDS011;5599;52.210;21.046;2023-06-22T02:18:03;27.73;;;25.35;;
11090;SDS011;5599;52.210;21.046;2023-06-22T02:20:34;29.05;;;26.25;;
11090;SDS011;5599;52.210;21.046;2023-06-22T02:23:05;28.33;;;25.92;;
11090;SDS011;5599;52.210;21.046;2023-06-22T02:25:35;28.65;;;26.13;;
11090;SDS011;5599;52.210;21.046;2023-06-22T02:28:04;28.55;;;26.25;;
11090;SDS011;5599;52.210;21.046;2023-06-22T02:30:35;29.80;;;27.40;;
11090;SDS011;5599;52.210;21.046;2023-06-22T02:33:07;30.08;;;27.35;;
11090;SDS011;5599;52.210;21.046;2023-06-22T02:35:36;29.73;;;27.30;;
11090;SDS011;5599;52.210;21.046;2023-06-22T02:38:06;30.52;;;27.83;;
11090;SDS011;5599;52.210;21.046;2023-06-22T02:40:35;32.35;;;29.48;;
11090;SDS011;5599;52.210;21.046;2023-06-22T02:43:05;31.65;;;29.05;;
11090;SDS011;5599;52.210;21.046;2023-06-22T02:45:35;32.72;;;30.05;;
11090;SDS011;5599;52.210;21.046;2023-06-22T02:48:04;33.30;;;30.38;;
11090;SDS011;5599;52.210;21.046;2023-06-22T02:50:34;32.78;;;30.17;;
11090;SDS011;5599;52.210;21.046;2023-06-22T02:53:04;32.90;;;30.27;;
11090;SDS011;5599;52.210;21.046;2023-06-22T02:55:36;32.55;;;29.95;;
11090;SDS011;5599;52.210;21.046;2023-06-22T02:58:07;32.92;;;30.23;;
11090;SDS011;5599;52.210;21.046;2023-06-22T03:00:39;36.15;;;32.65;;
11090;SDS011;5599;52.210;21.046;2023-06-22T03:03:08;33.75;;;31.05;;
11090;SDS011;5599;52.210;21.046;2023-06-22T03:05:37;34.22;;;31.42;;
11090;SDS011;5599;52.210;21.046;2023-06-22T03:08:08;32.70;;;30.08;;
11090;SDS011;5599;52.210;21.046;2023-06-22T03:10:37;35.03;;;32.13;;
11090;SDS011;5599;52.210;21.046;2023-06-22T03:13:06;34.05;;;31.25;;
11090;SDS011;5599;52.210;21.046;2023-06-22T03:15:35;34.30;;;31.50;;
11090;SDS011;5599;52.210;21.046;2023-06-22T03:18:07;36.78;;;33.83;;
11090;SDS011;5599;52.210;21.046;2023-06-22T03:20:36;35.15;;;32.35;;
11090;SDS011;5599;52.210;21.046;2023-06-22T03:23:08;35.10;;;32.10;;
11090;SDS011;5599;52.210;21.046;2023-06-22T03:25:37;34.22;;;31.48;;
11090;SDS011;5599;52.210;21.046;2023-06-22T03:28:06;33.83;;;31.02;;
11090;SDS011;5599;52.210;21.046;2023-06-22T03:30:35;34.70;;;31.73;;
11090;SDS011;5599;52.210;21.046;2023-06-22T03:33:05;34.10;;;31.30;;
11090;SDS011;5599;52.210;21.046;2023-06-22T03:35:35;33.53;;;30.65;;
11090;SDS011;5599;52.210;21.046;2023-06-22T03:38:05;33.00;;;30.25;;
11090;SDS011;5599;52.210;21.046;2023-06-22T03:40:34;33.42;;;30.63;;
11090;SDS011;5599;52.210;21.046;2023-06-22T03:43:03;32.05;;;29.33;;
11090;SDS011;5599;52.210;21.046;2023-06-22T03:45:32;33.30;;;30.50;;
11090;SDS011;5599;52.210;21.046;2023-06-22T03:48:02;32.83;;;30.13;;
11090;SDS011;5599;52.210;21.046;2023-06-22T03:50:33;32.33;;;29.73;;
11090;SDS011;5599;52.210;21.046;2023-06-22T03:53:02;32.65;;;29.88;;
11090;SDS011;5599;52.210;21.046;2023-06-22T03:55:33;31.27;;;28.77;;
11090;SDS011;5599;52.210;21.046;2023-06-22T03:58:03;30.83;;;28.13;;
11090;SDS011;5599;52.210;21.046;2023-06-22T04:00:32;29.70;;;27.40;;
11090;SDS011;5599;52.210;21.046;2023-06-22T04:03:02;30.17;;;27.70;;
11090;SDS011;5599;52.210;21.046;2023-06-22T04:05:32;29.85;;;27.25;;
11090;SDS011;5599;52.210;21.046;2023-06-22T04:08:01;29.92;;;27.33;;
11090;SDS011;5599;52.210;21.046;2023-06-22T04:10:31;29.50;;;27.05;;
11090;SDS011;5599;52.210;21.046;2023-06-22T04:13:00;29.95;;;27.23;;
11090;SDS011;5599;52.210;21.046;2023-06-22T04:15:29;28.67;;;26.38;;
11090;SDS011;5599;52.210;21.046;2023-06-22T04:17:58;30.33;;;27.88;;
11090;SDS011;5599;52.210;21.046;2023-06-22T04:20:28;29.85;;;27.25;;
11090;SDS011;5599;52.210;21.046;2023-06-22T04:23:00;29.08;;;26.67;;
11090;SDS011;5599;52.210;21.046;2023-06-22T04:25:29;29.10;;;26.50;;
11090;SDS011;5599;52.210;21.046;2023-06-22T04:27:59;28.83;;;26.42;;
11090;SDS011;5599;52.210;21.046;2023-06-22T04:30:32;29.65;;;27.23;;
11090;SDS011;5599;52.210;21.046;2023-06-22T04:33:01;28.23;;;25.83;;
11090;SDS011;5599;52.210;21.046;2023-06-22T04:35:30;28.92;;;26.65;;
11090;SDS011;5599;52.210;21.046;2023-06-22T04:38:01;26.80;;;24.23;;
11090;SDS011;5599;52.210;21.046;2023-06-22T04:40:30;25.67;;;23.63;;
11090;SDS011;5599;52.210;21.046;2023-06-22T04:42:59;26.70;;;24.50;;
11090;SDS011;5599;52.210;21.046;2023-06-22T04:45:29;26.73;;;24.42;;
11090;SDS011;5599;52.210;21.046;2023-06-22T04:47:58;27.90;;;25.40;;
11090;SDS011;5599;52.210;21.046;2023-06-22T04:50:27;25.88;;;23.83;;
11090;SDS011;5599;52.210;21.046;2023-06-22T04:52:57;27.23;;;24.80;;
11090;SDS011;5599;52.210;21.046;2023-06-22T04:55:28;26.83;;;24.50;;
11090;SDS011;5599;52.210;21.046;2023-06-22T04:57:57;27.55;;;24.98;;
11090;SDS011;5599;52.210;21.046;2023-06-22T05:00:31;28.23;;;25.65;;
11090;SDS011;5599;52.210;21.046;2023-06-22T05:03:03;27.95;;;25.73;;
11090;SDS011;5599;52.210;21.046;2023-06-22T05:05:45;27.13;;;24.75;;
11090;SDS011;5599;52.210;21.046;2023-06-22T05:08:14;26.17;;;23.92;;
11090;SDS011;5599;52.210;21.046;2023-06-22T05:10:46;25.98;;;23.65;;
11090;SDS011;5599;52.210;21.046;2023-06-22T05:13:31;27.58;;;25.17;;
11090;SDS011;5599;52.210;21.046;2023-06-22T05:16:00;24.17;;;22.05;;
11090;SDS011;5599;52.210;21.046;2023-06-22T05:18:30;26.77;;;24.48;;
11090;SDS011;5599;52.210;21.046;2023-06-22T05:20:59;26.15;;;23.85;;
11090;SDS011;5599;52.210;21.046;2023-06-22T05:23:29;26.83;;;24.33;;
11090;SDS011;5599;52.210;21.046;2023-06-22T05:25:59;26.45;;;24.15;;
11090;SDS011;5599;52.210;21.046;2023-06-22T05:28:29;26.20;;;24.00;;
11090;SDS011;5599;52.210;21.046;2023-06-22T05:30:58;28.27;;;25.52;;
11090;SDS011;5599;52.210;21.046;2023-06-22T05:33:27;26.55;;;24.42;;
11090;SDS011;5599;52.210;21.046;2023-06-22T05:35:56;27.15;;;24.65;;
11090;SDS011;5599;52.210;21.046;2023-06-22T05:38:26;27.63;;;24.83;;
11090;SDS011;5599;52.210;21.046;2023-06-22T05:40:55;26.40;;;24.05;;
11090;SDS011;5599;52.210;21.046;2023-06-22T05:43:25;27.15;;;24.70;;
11090;SDS011;5599;52.210;21.046;2023-06-22T05:45:54;26.95;;;24.63;;
11090;SDS011;5599;52.210;21.046;2023-06-22T05:48:24;26.25;;;24.15;;
11090;SDS011;5599;52.210;21.046;2023-06-22T05:50:53;27.13;;;24.90;;
11090;SDS011;5599;52.210;21.046;2023-06-22T05:53:23;26.05;;;23.98;;
11090;SDS011;5599;52.210;21.046;2023-06-22T05:55:52;27.65;;;25.17;;
11090;SDS011;5599;52.210;21.046;2023-06-22T05:58:21;28.45;;;26.02;;
11090;SDS011;5599;52.210;21.046;2023-06-22T06:00:51;27.55;;;25.23;;
11090;SDS011;5599;52.210;21.046;2023-06-22T06:03:20;28.45;;;26.05;;
11090;SDS011;5599;52.210;21.046;2023-06-22T06:05:50;26.67;;;24.38;;
11090;SDS011;5599;52.210;21.046;2023-06-22T06:08:19;27.63;;;25.33;;
11090;SDS011;5599;52.210;21.046;2023-06-22T06:10:48;25.88;;;23.73;;
11090;SDS011;5599;52.210;21.046;2023-06-22T06:13:20;25.92;;;23.58;;
11090;SDS011;5599;52.210;21.046;2023-06-22T06:15:49;29.00;;;26.40;;
11090;SDS011;5599;52.210;21.046;2023-06-22T06:18:23;26.88;;;24.23;;
11090;SDS011;5599;52.210;21.046;2023-06-22T06:20:52;23.42;;;21.42;;
11090;SDS011;5599;52.210;21.046;2023-06-22T06:23:21;22.80;;;20.75;;
11090;SDS011;5599;52.210;21.046;2023-06-22T06:25:51;22.08;;;20.27;;
11090;SDS011;5599;52.210;21.046;2023-06-22T06:28:20;21.90;;;20.17;;
11090;SDS011;5599;52.210;21.046;2023-06-22T06:30:50;23.00;;;20.75;;
11090;SDS011;5599;52.210;21.046;2023-06-22T06:33:20;20.75;;;18.95;;
11090;SDS011;5599;52.210;21.046;2023-06-22T06:35:53;22.17;;;20.20;;
11090;SDS011;5599;52.210;21.046;2023-06-22T06:38:23;21.20;;;19.23;;
11090;SDS011;5599;52.210;21.046;2023-06-22T06:40:52;20.75;;;19.10;;
11090;SDS011;5599;52.210;21.046;2023-06-22T06:43:22;19.85;;;18.25;;
11090;SDS011;5599;52.210;21.046;2023-06-22T06:45:52;19.52;;;17.73;;
11090;SDS011;5599;52.210;21.046;2023-06-22T06:48:21;19.63;;;17.77;;
11090;SDS011;5599;52.210;21.046;2023-06-22T06:50:50;19.58;;;17.65;;
11090;SDS011;5599;52.210;21.046;2023-06-22T06:53:21;18.50;;;17.00;;
11090;SDS011;5599;52.210;21.046;2023-06-22T06:55:50;19.60;;;17.45;;
11090;SDS011;5599;52.210;21.046;2023-06-22T06:58:20;19.90;;;18.10;;
11090;SDS011;5599;52.210;21.046;2023-06-22T07:00:50;19.52;;;17.67;;
11090;SDS011;5599;52.210;21.046;2023-06-22T07:03:20;18.58;;;16.73;;
11090;SDS011;5599;52.210;21.046;2023-06-22T07:05:54;17.83;;;16.27;;
11090;SDS011;5599;52.210;21.046;2023-06-22T07:08:24;17.23;;;15.57;;
11090;SDS011;5599;52.210;21.046;2023-06-22T07:10:55;16.88;;;15.25;;
11090;SDS011;5599;52.210;21.046;2023-06-22T07:13:24;15.10;;;13.70;;
11090;SDS011;5599;52.210;21.046;2023-06-22T07:15:53;15.75;;;14.25;;
11090;SDS011;5599;52.210;21.046;2023-06-22T07:18:23;16.00;;;14.57;;
11090;SDS011;5599;52.210;21.046;2023-06-22T07:20:53;14.32;;;13.20;;
11090;SDS011;5599;52.210;21.046;2023-06-22T07:23:22;16.30;;;14.80;;
11090;SDS011;5599;52.210;21.046;2023-06-22T07:25:53;14.50;;;13.27;;
11090;SDS011;5599;52.210;21.046;2023-06-22T07:28:22;14.68;;;13.38;;
11090;SDS011;5599;52.210;21.046;2023-06-22T07:30:51;13.75;;;12.43;;
11090;SDS011;5599;52.210;21.046;2023-06-22T07:33:21;12.30;;;11.30;;
11090;SDS011;5599;52.210;21.046;2023-06-22T07:35:50;11.23;;;10.20;;
11090;SDS011;5599;52.210;21.046;2023-06-22T07:38:19;10.73;;;9.63;;
11090;SDS011;5599;52.210;21.046;2023-06-22T07:40:50;10.73;;;9.77;;
11090;SDS011;5599;52.210;21.046;2023-06-22T07:43:20;9.65;;;8.80;;
11090;SDS011;5599;52.210;21.046;2023-06-22T07:45:50;9.57;;;7.95;;
11090;SDS011;5599;52.210;21.046;2023-06-22T07:48:20;8.65;;;7.90;;
11090;SDS011;5599;52.210;21.046;2023-06-22T07:50:50;8.05;;;7.35;;
11090;SDS011;5599;52.210;21.046;2023-06-22T07:53:20;7.28;;;6.68;;
11090;SDS011;5599;52.210;21.046;2023-06-22T07:55:51;7.20;;;6.60;;
11090;SDS011;5599;52.210;21.046;2023-06-22T07:58:21;9.23;;;6.82;;
11090;SDS011;5599;52.210;21.046;2023-06-22T08:00:50;6.35;;;5.75;;
11090;SDS011;5599;52.210;21.046;2023-06-22T08:03:19;8.27;;;6.35;;
11090;SDS011;5599;52.210;21.046;2023-06-22T08:05:48;6.22;;;5.60;;
11090;SDS011;5599;52.210;21.046;2023-06-22T08:08:18;5.93;;;5.43;;
11090;SDS011;5599;52.210;21.046;2023-06-22T08:10:47;6.30;;;5.70;;
11090;SDS011;5599;52.210;21.046;2023-06-22T08:13:18;5.82;;;5.32;;
11090;SDS011;5599;52.210;21.046;2023-06-22T08:15:47;5.65;;;5.15;;
11090;SDS011;5599;52.210;21.046;2023-06-22T08:18:16;7.47;;;6.32;;
11090;SDS011;5599;52.210;21.046;2023-06-22T08:20:45;7.68;;;5.65;;
11090;SDS011;5599;52.210;21.046;2023-06-22T08:23:15;5.70;;;5.30;;
11090;SDS011;5599;52.210;21.046;2023-06-22T08:25:44;7.70;;;5.63;;
11090;SDS011;5599;52.210;21.046;2023-06-22T08:28:15;5.40;;;4.90;;
11090;SDS011;5599;52.210;21.046;2023-06-22T08:30:45;7.15;;;5.03;;
11090;SDS011;5599;52.210;21.046;2023-06-22T08:33:15;8.35;;;5.55;;
11090;SDS011;5599;52.210;21.046;2023-06-22T08:35:54;6.03;;;5.28;;
11090;SDS011;5599;52.210;21.046;2023-06-22T08:38:23;5.43;;;4.93;;
11090;SDS011;5599;52.210;21.046;2023-06-22T08:40:53;7.53;;;5.30;;
11090;SDS011;5599;52.210;21.046;2023-06-22T08:43:22;5.80;;;5.30;;
11090;SDS011;5599;52.210;21.046;2023-06-22T08:45:53;5.35;;;4.85;;
11090;SDS011;5599;52.210;21.046;2023-06-22T08:48:22;5.05;;;4.65;;
11090;SDS011;5599;52.210;21.046;2023-06-22T08:50:51;4.88;;;4.47;;
11090;SDS011;5599;52.210;21.046;2023-06-22T08:53:20;5.13;;;4.68;;
11090;SDS011;5599;52.210;21.046;2023-06-22T08:55:49;5.18;;;4.72;;
11090;SDS011;5599;52.210;21.046;2023-06-22T08:58:19;4.95;;;4.47;;
11090;SDS011;5599;52.210;21.046;2023-06-22T09:00:48;5.13;;;4.72;;
11090;SDS011;5599;52.210;21.046;2023-06-22T09:03:20;5.30;;;4.88;;
11090;SDS011;5599;52.210;21.046;2023-06-22T09:05:53;6.20;;;5.00;;
11090;SDS011;5599;52.210;21.046;2023-06-22T09:08:23;6.18;;;4.57;;
11090;SDS011;5599;52.210;21.046;2023-06-22T09:10:52;5.20;;;4.70;;
11090;SDS011;5599;52.210;21.046;2023-06-22T09:13:22;6.63;;;5.35;;
11090;SDS011;5599;52.210;21.046;2023-06-22T09:15:51;5.97;;;5.05;;
11090;SDS011;5599;52.210;21.046;2023-06-22T09:18:22;5.72;;;4.50;;
11090;SDS011;5599;52.210;21.046;2023-06-22T09:20:52;5.32;;;4.32;;
11090;SDS011;5599;52.210;21.046;2023-06-22T09:23:21;9.18;;;4.72;;
11090;SDS011;5599;52.210;21.046;2023-06-22T09:25:50;5.25;;;4.72;;
11090;SDS011;5599;52.210;21.046;2023-06-22T09:28:20;5.43;;;4.50;;
11090;SDS011;5599;52.210;21.046;2023-06-22T09:30:49;4.68;;;4.05;;
11090;SDS011;5599;52.210;21.046;2023-06-22T09:33:18;4.45;;;4.00;;
11090;SDS011;5599;52.210;21.046;2023-06-22T09:35:49;4.32;;;3.92;;
11090;SDS011;5599;52.210;21.046;2023-06-22T09:38:18;4.78;;;3.88;;
11090;SDS011;5599;52.210;21.046;2023-06-22T09:40:48;4.57;;;4.18;;
11090;SDS011;5599;52.210;21.046;2023-06-22T09:43:17;4.68;;;4.28;;
11090;SDS011;5599;52.210;21.046;2023-06-22T09:45:46;4.78;;;4.20;;
11090;SDS011;5599;52.210;21.046;2023-06-22T09:48:16;3.92;;;3.53;;
11090;SDS011;5599;52.210;21.046;2023-06-22T09:50:45;3.70;;;3.30;;
11090;SDS011;5599;52.210;21.046;2023-06-22T09:53:16;4.10;;;3.80;;
11090;SDS011;5599;52.210;21.046;2023-06-22T09:55:45;5.20;;;3.90;;
11090;SDS011;5599;52.210;21.046;2023-06-22T09:58:15;3.97;;;3.60;;
11090;SDS011;5599;52.210;21.046;2023-06-22T10:00:44;4.00;;;3.45;;
11090;SDS011;5599;52.210;21.046;2023-06-22T10:03:13;7.75;;;3.75;;
11090;SDS011;5599;52.210;21.046;2023-06-22T10:05:42;4.43;;;3.90;;
11090;SDS011;5599;52.210;21.046;2023-06-22T10:08:13;4.47;;;3.60;;
11090;SDS011;5599;52.210;21.046;2023-06-22T10:10:43;4.03;;;3.72;;
11090;SDS011;5599;52.210;21.046;2023-06-22T10:13:13;3.97;;;3.40;;
11090;SDS011;5599;52.210;21.046;2023-06-22T10:15:42;3.60;;;3.30;;
11090;SDS011;5599;52.210;21.046;2023-06-22T10:18:16;4.07;;;3.33;;
11090;SDS011;5599;52.210;21.046;2023-06-22T10:20:47;4.78;;;3.95;;
11090;SDS011;5599;52.210;21.046;2023-06-22T10:23:18;5.15;;;3.58;;
11090;SDS011;5599;52.210;21.046;2023-06-22T10:25:49;4.05;;;3.67;;
11090;SDS011;5599;52.210;21.046;2023-06-22T10:28:19;4.03;;;3.72;;
11090;SDS011;5599;52.210;21.046;2023-06-22T10:30:48;4.47;;;4.07;;
11090;SDS011;5599;52.210;21.046;2023-06-22T10:33:17;5.25;;;4.40;;
11090;SDS011;5599;52.210;21.046;2023-06-22T10:35:47;5.10;;;4.10;;
11090;SDS011;5599;52.210;21.046;2023-06-22T10:38:16;4.40;;;3.88;;
11090;SDS011;5599;52.210;21.046;2023-06-22T10:40:46;8.80;;;4.40;;
11090;SDS011;5599;52.210;21.046;2023-06-22T10:43:17;4.50;;;4.00;;
11090;SDS011;5599;52.210;21.046;2023-06-22T10:45:46;5.13;;;3.70;;
11090;SDS011;5599;52.210;21.046;2023-06-22T10:48:15;4.88;;;4.20;;
11090;SDS011;5599;52.210;21.046;2023-06-22T10:50:44;4.65;;;4.00;;
11090;SDS011;5599;52.210;21.046;2023-06-22T10:53:14;4.90;;;4.00;;
11090;SDS011;5599;52.210;21.046;2023-06-22T10:55:44;6.07;;;3.90;;
11090;SDS011;5599;52.210;21.046;2023-06-22T10:58:24;5.88;;;3.80;;
11090;SDS011;5599;52.210;21.046;2023-06-22T11:00:54;4.40;;;3.97;;
11090;SDS011;5599;52.210;21.046;2023-06-22T11:03:23;4.00;;;3.67;;
11090;SDS011;5599;52.210;21.046;2023-06-22T11:05:52;5.30;;;3.92;;
11090;SDS011;5599;52.210;21.046;2023-06-22T11:08:21;4.72;;;4.00;;
11090;SDS011;5599;52.210;21.046;2023-06-22T11:10:51;10.65;;;4.10;;
11090;SDS011;5599;52.210;21.046;2023-06-22T11:13:20;4.65;;;4.10;;
11090;SDS011;5599;52.210;21.046;2023-06-22T11:15:51;8.23;;;3.90;;
11090;SDS011;5599;52.210;21.046;2023-06-22T11:18:20;7.80;;;4.47;;
11090;SDS011;5599;52.210;21.046;2023-06-22T11:20:50;7.10;;;4.35;;
11090;SDS011;5599;52.210;21.046;2023-06-22T11:23:20;4.78;;;4.38;;
11090;SDS011;5599;52.210;21.046;2023-06-22T11:25:49;4.95;;;4.45;;
11090;SDS011;5599;52.210;21.046;2023-06-22T11:28:20;6.13;;;4.18;;
11090;SDS011;5599;52.210;21.046;2023-06-22T11:30:51;4.55;;;3.83;;
11090;SDS011;5599;52.210;21.046;2023-06-22T11:33:20;4.78;;;4.15;;
11090;SDS011;5599;52.210;21.046;2023-06-22T11:35:50;5.47;;;4.25;;
11090;SDS011;5599;52.210;21.046;2023-06-22T11:38:19;8.07;;;4.07;;
11090;SDS011;5599;52.210;21.046;2023-06-22T11:40:49;5.60;;;4.45;;
11090;SDS011;5599;52.210;21.046;2023-06-22T11:43:18;6.78;;;4.07;;
11090;SDS011;5599;52.210;21.046;2023-06-22T11:45:47;7.40;;;4.45;;
11090;SDS011;5599;52.210;21.046;2023-06-22T11:48:18;5.55;;;5.05;;
11090;SDS011;5599;52.210;21.046;2023-06-22T11:50:47;5.82;;;4.72;;
11090;SDS011;5599;52.210;21.046;2023-06-22T11:53:16;4.55;;;4.13;;
11090;SDS011;5599;52.210;21.046;2023-06-22T11:55:46;4.70;;;4.30;;
11090;SDS011;5599;52.210;21.046;2023-06-22T11:58:16;5.85;;;3.80;;
11090;SDS011;5599;52.210;21.046;2023-06-22T12:00:45;4.20;;;3.90;;
11090;SDS011;5599;52.210;21.046;2023-06-22T12:03:19;5.40;;;4.18;;
11090;SDS011;5599;52.210;21.046;2023-06-22T12:05:50;4.80;;;4.40;;
11090;SDS011;5599;52.210;21.046;2023-06-22T12:08:19;5.43;;;4.30;;
11090;SDS011;5599;52.210;21.046;2023-06-22T12:10:49;4.55;;;4.15;;
11090;SDS011;5599;52.210;21.046;2023-06-22T12:13:18;4.97;;;4.53;;
11090;SDS011;5599;52.210;21.046;2023-06-22T12:15:48;4.93;;;4.28;;
11090;SDS011;5599;52.210;21.046;2023-06-22T12:18:20;4.78;;;4.28;;
11090;SDS011;5599;52.210;21.046;2023-06-22T12:20:50;4.65;;;4.25;;
11090;SDS011;5599;52.210;21.046;2023-06-22T12:23:19;5.03;;;4.53;;
11090;SDS011;5599;52.210;21.046;2023-06-22T12:25:48;8.05;;;4.68;;
11090;SDS011;5599;52.210;21.046;2023-06-22T12:28:18;5.18;;;4.45;;
11090;SDS011;5599;52.210;21.046;2023-06-22T12:30:47;6.38;;;4.45;;
11090;SDS011;5599;52.210;21.046;2023-06-22T12:33:16;4.18;;;3.65;;
11090;SDS011;5599;52.210;21.046;2023-06-22T12:35:47;4.45;;;4.05;;
11090;SDS011;5599;52.210;21.046;2023-06-22T12:38:17;4.30;;;3.90;;
11090;SDS011;5599;52.210;21.046;2023-06-22T12:40:46;4.07;;;3.78;;
11090;SDS011;5599;52.210;21.046;2023-06-22T12:43:16;5.03;;;4.20;;
11090;SDS011;5599;52.210;21.046;2023-06-22T12:45:51;5.57;;;4.03;;
11090;SDS011;5599;52.210;21.046;2023-06-22T12:48:28;5.20;;;4.20;;
11090;SDS011;5599;52.210;21.046;2023-06-22T12:50:59;6.30;;;4.45;;
11090;SDS011;5599;52.210;21.046;2023-06-22T12:53:29;4.93;;;4.07;;
11090;SDS011;5599;52.210;21.046;2023-06-22T12:55:59;4.53;;;3.85;;
11090;SDS011;5599;52.210;21.046;2023-06-22T12:58:28;4.80;;;4.38;;
11090;SDS011;5599;52.210;21.046;2023-06-22T13:00:57;5.07;;;3.88;;
11090;SDS011;5599;52.210;21.046;2023-06-22T13:03:27;5.43;;;4.25;;
11090;SDS011;5599;52.210;21.046;2023-06-22T13:05:56;5.65;;;4.00;;
11090;SDS011;5599;52.210;21.046;2023-06-22T13:08:27;4.65;;;4.25;;
11090;SDS011;5599;52.210;21.046;2023-06-22T13:11:16;4.30;;;4.00;;
11090;SDS011;5599;52.210;21.046;2023-06-22T13:13:47;7.80;;;5.10;;
11090;SDS011;5599;52.210;21.046;2023-06-22T13:16:17;5.28;;;4.57;;
11090;SDS011;5599;52.210;21.046;2023-06-22T13:18:46;6.75;;;4.13;;
11090;SDS011;5599;52.210;21.046;2023-06-22T13:21:17;4.80;;;4.15;;
11090;SDS011;5599;52.210;21.046;2023-06-22T13:23:46;4.95;;;4.55;;
11090;SDS011;5599;52.210;21.046;2023-06-22T13:26:16;5.15;;;3.97;;
11090;SDS011;5599;52.210;21.046;2023-06-22T13:28:45;5.95;;;4.97;;
11090;SDS011;5599;52.210;21.046;2023-06-22T13:31:14;5.07;;;4.57;;
11090;SDS011;5599;52.210;21.046;2023-06-22T13:33:44;4.57;;;4.28;;
11090;SDS011;5599;52.210;21.046;2023-06-22T13:36:15;5.25;;;4.70;;
11090;SDS011;5599;52.210;21.046;2023-06-22T13:38:45;5.07;;;4.55;;
11090;SDS011;5599;52.210;21.046;2023-06-22T13:41:15;5.13;;;4.72;;
11090;SDS011;5599;52.210;21.046;2023-06-22T13:43:44;6.10;;;4.38;;
11090;SDS011;5599;52.210;21.046;2023-06-22T13:46:13;5.93;;;4.78;;
11090;SDS011;5599;52.210;21.046;2023-06-22T13:48:42;6.75;;;4.45;;
11090;SDS011;5599;52.210;21.046;2023-06-22T13:51:11;4.63;;;4.28;;
11090;SDS011;5599;52.210;21.046;2023-06-22T13:53:42;4.78;;;4.38;;
11090;SDS011;5599;52.210;21.046;2023-06-22T13:56:11;4.13;;;3.80;;
11090;SDS011;5599;52.210;21.046;2023-06-22T13:58:40;4.47;;;4.07;;
11090;SDS011;5599;52.210;21.046;2023-06-22T14:01:11;5.35;;;4.38;;
11090;SDS011;5599;52.210;21.046;2023-06-22T14:03:43;4.70;;;4.20;;
11090;SDS011;5599;52.210;21.046;2023-06-22T14:06:14;5.53;;;5.03;;
11090;SDS011;5599;52.210;21.046;2023-06-22T14:08:45;5.63;;;5.05;;
11090;SDS011;5599;52.210;21.046;2023-06-22T14:11:14;5.85;;;4.93;;
11090;SDS011;5599;52.210;21.046;2023-06-22T14:13:49;6.28;;;5.25;;
11090;SDS011;5599;52.210;21.046;2023-06-22T14:16:19;5.50;;;5.00;;
11090;SDS011;5599;52.210;21.046;2023-06-22T14:18:48;4.70;;;4.30;;
11090;SDS011;5599;52.210;21.046;2023-06-22T14:21:20;6.70;;;5.07;;
11090;SDS011;5599;52.210;21.046;2023-06-22T14:23:51;6.00;;;5.38;;
11090;SDS011;5599;52.210;21.046;2023-06-22T14:26:21;5.53;;;5.03;;
11090;SDS011;5599;52.210;21.046;2023-06-22T14:28:50;7.20;;;5.72;;
11090;SDS011;5599;52.210;21.046;2023-06-22T14:31:20;6.20;;;5.50;;
11090;SDS011;5599;52.210;21.046;2023-06-22T14:33:50;6.28;;;5.53;;
11090;SDS011;5599;52.210;21.046;2023-06-22T14:36:19;5.40;;;5.00;;
11090;SDS011;5599;52.210;21.046;2023-06-22T14:38:48;7.85;;;6.15;;
11090;SDS011;5599;52.210;21.046;2023-06-22T14:41:19;6.00;;;5.40;;
11090;SDS011;5599;52.210;21.046;2023-06-22T14:43:49;5.50;;;5.00;;
11090;SDS011;5599;52.210;21.046;2023-06-22T14:46:19;7.97;;;5.13;;
11090;SDS011;5599;52.210;21.046;2023-06-22T14:48:48;7.32;;;6.72;;
11090;SDS011;5599;52.210;21.046;2023-06-22T14:51:17;6.43;;;5.80;;